createdAt,value
2018-06-23T00:00:07.570Z,22.9
2018-06-23T00:00:57.888Z,23
2018-06-23T00:01:47.739Z,22.9
2018-06-23T00:02:37.844Z,22.9
2018-06-23T00:03:27.858Z,22.9
2018-06-23T00:04:17.670Z,22.9
2018-06-23T00:05:07.103Z,22.9
2018-06-23T00:05:58.049Z,22.9
2018-06-23T00:06:47.339Z,22.9
2018-06-23T00:07:37.669Z,22.9
2018-06-23T00:08:27.652Z,22.9
2018-06-23T00:09:18.304Z,22.9
2018-06-23T00:10:08.605Z,22.9
2018-06-23T00:10:58.148Z,22.9
2018-06-23T00:11:48.167Z,22.9
2018-06-23T00:12:38.213Z,22.9
2018-06-23T00:13:27.764Z,22.9
2018-06-23T00:14:17.855Z,22.9
2018-06-23T00:15:08.430Z,22.9
2018-06-23T00:15:58.537Z,22.9
2018-06-23T00:16:48.321Z,22.9
2018-06-23T00:17:38.985Z,22.9
2018-06-23T00:18:28.134Z,22.9
2018-06-23T00:19:19.080Z,22.9
2018-06-23T00:20:09.122Z,22.9
2018-06-23T00:20:58.609Z,22.9
2018-06-23T00:21:48.987Z,22.9
2018-06-23T00:22:39.321Z,22.9
2018-06-23T00:23:27.983Z,22.9
2018-06-23T00:24:19.461Z,22.9
2018-06-23T00:25:09.211Z,22.9
2018-06-23T00:25:59.567Z,22.9
2018-06-23T00:26:49.024Z,22.9
2018-06-23T00:27:38.579Z,22.9
2018-06-23T00:28:29.208Z,22.9
2018-06-23T00:29:19.546Z,22.9
2018-06-23T00:30:09.313Z,22.9
2018-06-23T00:30:59.654Z,22.9
2018-06-23T00:31:50.060Z,22.9
2018-06-23T00:32:39.751Z,22.9
2018-06-23T00:33:29.034Z,22.9
2018-06-23T00:34:19.893Z,22.9
2018-06-23T00:35:10.294Z,22.9
2018-06-23T00:36:00.583Z,22.9
2018-06-23T00:36:50.676Z,22.9
2018-06-23T00:37:40.466Z,22.9
2018-06-23T00:38:29.951Z,22.9
2018-06-23T00:39:20.017Z,22.9
2018-06-23T00:40:10.351Z,22.9
2018-06-23T00:40:59.863Z,22.9
2018-06-23T00:41:50.183Z,22.9
2018-06-23T00:42:40.538Z,22.9
2018-06-23T00:43:30.575Z,22.9
2018-06-23T00:44:21.233Z,22.9
2018-06-23T00:45:11.271Z,22.9
2018-06-23T00:46:01.331Z,22.9
2018-06-23T00:46:51.401Z,22.9
2018-06-23T00:47:41.210Z,22.9
2018-06-23T00:48:30.707Z,22.9
2018-06-23T00:49:20.490Z,22.9
2018-06-23T00:50:11.104Z,22.9
2018-06-23T00:51:01.164Z,22.9
2018-06-23T00:51:51.029Z,22.9
2018-06-23T00:52:41.024Z,22.9
2018-06-23T00:53:31.057Z,22.9
2018-06-23T00:54:21.265Z,22.9
2018-06-23T00:55:12.065Z,22.9
2018-06-23T00:56:00.775Z,22.9
2018-06-23T00:56:50.579Z,22.9
2018-06-23T00:57:42.283Z,22.9
2018-06-23T00:58:30.791Z,22.9
2018-06-23T00:59:22.130Z,22.9
2018-06-23T01:00:11.697Z,22.9
2018-06-23T01:01:02.501Z,22.9
2018-06-23T01:01:52.287Z,22.9
2018-06-23T01:02:42.139Z,22.9
2018-06-23T01:03:31.861Z,22.9
2018-06-23T01:04:22.699Z,22.9
2018-06-23T01:05:11.769Z,22.9
2018-06-23T01:06:01.777Z,22.9
2018-06-23T01:06:52.638Z,22.9
2018-06-23T01:07:41.390Z,22.9
2018-06-23T01:08:32.042Z,22.9
2018-06-23T01:09:22.505Z,22.9
2018-06-23T01:10:11.940Z,22.9
2018-06-23T01:11:02.164Z,22.9
2018-06-23T01:11:51.489Z,22.9
2018-06-23T01:12:41.761Z,22.9
2018-06-23T01:13:32.688Z,22.9
2018-06-23T01:14:22.485Z,22.9
2018-06-23T01:15:12.282Z,22.9
2018-06-23T01:16:03.665Z,22.9
2018-06-23T01:16:52.904Z,22.9
2018-06-23T01:17:43.284Z,22.9
2018-06-23T01:18:32.761Z,22.9
2018-06-23T01:19:23.161Z,22.9
2018-06-23T01:20:12.360Z,22.9
2018-06-23T01:21:02.435Z,22.9
2018-06-23T01:21:53.596Z,22.9
2018-06-23T01:22:43.430Z,22.9
2018-06-23T01:23:33.461Z,22.9
2018-06-23T01:24:23.275Z,22.9
2018-06-23T01:25:13.888Z,22.9
2018-06-23T01:26:03.628Z,22.8
2018-06-23T01:26:52.876Z,22.9
2018-06-23T01:27:44.080Z,22.9
2018-06-23T01:28:32.995Z,22.9
2018-06-23T01:29:23.352Z,22.9
2018-06-23T01:30:13.424Z,22.8
2018-06-23T01:31:04.043Z,22.9
2018-06-23T01:31:54.395Z,22.8
2018-06-23T01:32:43.823Z,22.9
2018-06-23T01:33:34.512Z,22.9
2018-06-23T01:34:24.511Z,22.9
2018-06-23T01:35:14.404Z,22.8
2018-06-23T01:36:04.702Z,22.8
2018-06-23T01:36:54.237Z,22.8
2018-06-23T01:37:44.248Z,22.8
2018-06-23T01:38:33.469Z,22.9
2018-06-23T01:39:24.145Z,22.9
2018-06-23T01:40:13.879Z,22.9
2018-06-23T01:41:04.790Z,22.8
2018-06-23T01:41:53.746Z,22.9
2018-06-23T01:42:43.518Z,22.8
2018-06-23T01:43:35.284Z,22.8
2018-06-23T01:44:25.347Z,22.8
2018-06-23T01:45:14.851Z,22.8
2018-06-23T01:46:04.350Z,22.9
2018-06-23T01:46:54.382Z,22.8
2018-06-23T01:47:44.174Z,22.8
2018-06-23T01:48:35.414Z,22.8
2018-06-23T01:49:25.184Z,22.8
2018-06-23T01:50:14.675Z,22.8
2018-06-23T01:51:05.352Z,22.8
2018-06-23T01:51:55.879Z,22.8
2018-06-23T01:52:44.869Z,22.8
2018-06-23T01:53:35.522Z,22.8
2018-06-23T01:54:24.684Z,22.8
2018-06-23T01:55:15.805Z,22.8
2018-06-23T01:56:06.395Z,22.8
2018-06-23T01:56:56.120Z,22.8
2018-06-23T01:57:46.846Z,22.8
2018-06-23T01:58:35.922Z,22.8
2018-06-23T01:59:26.179Z,22.8
2018-06-23T02:00:15.169Z,22.8
2018-06-23T02:01:06.561Z,22.8
2018-06-23T02:01:55.541Z,22.8
2018-06-23T02:02:47.284Z,22.8
2018-06-23T02:03:37.288Z,22.8
2018-06-23T02:04:26.572Z,22.8
2018-06-23T02:05:15.827Z,22.8
2018-06-23T02:06:05.604Z,22.8
2018-06-23T02:06:56.791Z,22.8
2018-06-23T02:07:46.238Z,22.8
2018-06-23T02:08:37.095Z,22.8
2018-06-23T02:09:25.821Z,22.8
2018-06-23T02:10:15.890Z,22.8
2018-06-23T02:11:07.178Z,22.8
2018-06-23T02:11:57.397Z,22.8
2018-06-23T02:12:47.075Z,22.8
2018-06-23T02:13:37.242Z,22.8
2018-06-23T02:14:28.139Z,22.8
2018-06-23T02:15:16.756Z,22.8
2018-06-23T02:16:06.862Z,22.8
2018-06-23T02:16:57.957Z,22.8
2018-06-23T02:17:47.562Z,22.8
2018-06-23T02:18:38.137Z,22.8
2018-06-23T02:19:27.452Z,22.8
2018-06-23T02:20:17.479Z,22.8
2018-06-23T02:21:07.856Z,22.8
2018-06-23T02:21:57.834Z,22.8
2018-06-23T02:22:48.759Z,22.8
2018-06-23T02:23:38.229Z,22.8
2018-06-23T02:24:28.144Z,22.8
2018-06-23T02:25:18.637Z,22.8
2018-06-23T02:26:08.394Z,22.8
2018-06-23T02:26:58.532Z,22.8
2018-06-23T02:27:48.832Z,22.8
2018-06-23T02:28:37.829Z,22.8
2018-06-23T02:29:28.566Z,22.8
2018-06-23T02:30:17.926Z,22.8
2018-06-23T02:31:08.941Z,22.8
2018-06-23T02:31:58.989Z,22.8
2018-06-23T02:32:48.367Z,22.8
2018-06-23T02:33:39.636Z,22.8
2018-06-23T02:34:28.808Z,22.8
2018-06-23T02:35:19.490Z,22.8
2018-06-23T02:36:09.199Z,22.8
2018-06-23T02:36:59.053Z,22.8
2018-06-23T02:37:49.679Z,22.8
2018-06-23T02:38:39.705Z,22.8
2018-06-23T02:39:28.441Z,22.8
2018-06-23T02:40:18.684Z,22.8
2018-06-23T02:41:09.047Z,22.8
2018-06-23T02:41:59.958Z,22.8
2018-06-23T02:42:49.978Z,22.8
2018-06-23T02:43:39.908Z,22.8
2018-06-23T02:44:29.823Z,22.8
2018-06-23T02:45:20.487Z,22.8
2018-06-23T02:46:10.253Z,22.8
2018-06-23T02:46:59.553Z,22.8
2018-06-23T02:47:49.822Z,22.8
2018-06-23T02:48:39.967Z,22.8
2018-06-23T02:49:30.235Z,22.8
2018-06-23T02:50:20.570Z,22.8
2018-06-23T02:51:09.368Z,22.8
2018-06-23T02:52:00.125Z,22.8
2018-06-23T02:52:50.643Z,22.8
2018-06-23T02:53:39.948Z,22.8
2018-06-23T02:54:30.641Z,22.8
2018-06-23T02:55:20.982Z,22.8
2018-06-23T02:56:10.765Z,22.8
2018-06-23T02:57:00.034Z,22.8
2018-06-23T02:57:49.813Z,22.8
2018-06-23T02:58:40.457Z,22.8
2018-06-23T02:59:30.724Z,22.8
2018-06-23T03:00:20.781Z,22.8
2018-06-23T03:01:10.955Z,22.8
2018-06-23T03:02:00.606Z,22.8
2018-06-23T03:02:51.084Z,22.8
2018-06-23T03:03:40.978Z,22.8
2018-06-23T03:04:30.023Z,22.7
2018-06-23T03:05:21.012Z,22.8
2018-06-23T03:06:11.534Z,22.8
2018-06-23T03:07:00.515Z,22.7
2018-06-23T03:07:52.186Z,22.8
2018-06-23T03:08:41.746Z,22.8
2018-06-23T03:09:31.559Z,22.8
2018-06-23T03:10:21.307Z,22.8
2018-06-23T03:11:11.097Z,22.8
2018-06-23T03:12:02.020Z,22.7
2018-06-23T03:12:52.122Z,22.8
2018-06-23T03:13:41.584Z,22.8
2018-06-23T03:14:31.108Z,22.8
2018-06-23T03:15:21.905Z,22.7
2018-06-23T03:16:11.561Z,22.7
2018-06-23T03:17:00.691Z,22.8
2018-06-23T03:17:52.189Z,22.7
2018-06-23T03:18:42.002Z,22.7
2018-06-23T03:19:32.350Z,22.7
2018-06-23T03:20:21.481Z,22.7
2018-06-23T03:21:12.468Z,22.8
2018-06-23T03:22:01.924Z,22.7
2018-06-23T03:22:52.226Z,22.8
2018-06-23T03:23:43.061Z,22.7
2018-06-23T03:24:31.809Z,22.7
2018-06-23T03:25:22.613Z,22.7
2018-06-23T03:26:12.491Z,22.7
2018-06-23T03:27:02.857Z,22.7
2018-06-23T03:27:52.349Z,22.7
2018-06-23T03:28:42.950Z,22.7
2018-06-23T03:29:32.190Z,22.7
2018-06-23T03:30:23.435Z,22.7
2018-06-23T03:31:12.987Z,22.7
2018-06-23T03:32:03.021Z,22.7
2018-06-23T03:32:52.765Z,22.7
2018-06-23T03:33:42.516Z,22.7
2018-06-23T03:34:32.845Z,22.7
2018-06-23T03:35:23.203Z,22.7
2018-06-23T03:36:13.261Z,22.7
2018-06-23T03:37:02.570Z,22.7
2018-06-23T03:37:53.998Z,22.7
2018-06-23T03:38:43.960Z,22.7
2018-06-23T03:39:32.918Z,22.7
2018-06-23T03:40:23.559Z,22.7
2018-06-23T03:41:14.194Z,22.7
2018-06-23T03:42:03.408Z,22.7
2018-06-23T03:42:54.511Z,22.7
2018-06-23T03:43:43.397Z,22.7
2018-06-23T03:44:33.845Z,22.7
2018-06-23T03:45:24.198Z,22.7
2018-06-23T03:46:13.440Z,22.7
2018-06-23T03:47:04.644Z,22.6
2018-06-23T03:47:54.715Z,22.7
2018-06-23T03:48:43.945Z,22.6
2018-06-23T03:49:34.792Z,22.7
2018-06-23T03:50:24.599Z,22.7
2018-06-23T03:51:14.713Z,22.7
2018-06-23T03:52:03.918Z,22.7
2018-06-23T03:52:54.490Z,22.7
2018-06-23T03:53:44.353Z,22.6
2018-06-23T03:54:34.902Z,22.7
2018-06-23T03:55:25.254Z,22.6
2018-06-23T03:56:15.065Z,22.6
2018-06-23T03:57:04.809Z,22.7
2018-06-23T03:57:54.876Z,22.7
2018-06-23T03:58:45.546Z,22.6
2018-06-23T03:59:35.290Z,22.7
2018-06-23T04:00:25.091Z,22.6
2018-06-23T04:01:15.153Z,22.6
2018-06-23T04:02:05.773Z,22.7
2018-06-23T04:02:55.295Z,22.6
2018-06-23T04:03:45.890Z,22.6
2018-06-23T04:04:35.394Z,22.6
2018-06-23T04:05:26.038Z,22.6
2018-06-23T04:06:15.237Z,22.6
2018-06-23T04:07:05.732Z,22.6
2018-06-23T04:07:55.616Z,22.7
2018-06-23T04:08:45.423Z,22.6
2018-06-23T04:09:35.754Z,22.6
2018-06-23T04:10:26.081Z,22.6
2018-06-23T04:11:15.625Z,22.6
2018-06-23T04:12:06.240Z,22.6
2018-06-23T04:12:56.044Z,22.6
2018-06-23T04:13:46.054Z,22.6
2018-06-23T04:14:36.151Z,22.6
2018-06-23T04:15:26.471Z,22.6
2018-06-23T04:16:17.268Z,22.6
2018-06-23T04:17:07.427Z,22.6
2018-06-23T04:17:56.687Z,22.6
2018-06-23T04:18:46.608Z,22.6
2018-06-23T04:19:36.806Z,22.6
2018-06-23T04:20:26.565Z,22.6
2018-06-23T04:21:16.673Z,22.6
2018-06-23T04:22:07.474Z,22.6
2018-06-23T04:22:57.013Z,22.6
2018-06-23T04:23:46.857Z,22.6
2018-06-23T04:24:36.322Z,22.6
2018-06-23T04:25:26.355Z,22.6
2018-06-23T04:26:17.493Z,22.6
2018-06-23T04:27:07.857Z,22.6
2018-06-23T04:27:58.134Z,22.6
2018-06-23T04:28:47.883Z,22.6
2018-06-23T04:29:37.489Z,22.6
2018-06-23T04:30:27.576Z,22.6
2018-06-23T04:31:17.362Z,22.6
2018-06-23T04:32:08.546Z,22.6
2018-06-23T04:32:58.216Z,22.6
2018-06-23T04:33:47.302Z,22.6
2018-06-23T04:34:38.404Z,22.6
2018-06-23T04:35:27.976Z,22.6
2018-06-23T04:36:18.334Z,22.6
2018-06-23T04:37:08.081Z,22.6
2018-06-23T04:37:57.955Z,22.6
2018-06-23T04:38:48.289Z,22.6
2018-06-23T04:39:37.457Z,22.6
2018-06-23T04:40:27.860Z,22.6
2018-06-23T04:41:19.168Z,22.6
2018-06-23T04:42:09.263Z,22.6
2018-06-23T04:42:58.841Z,22.6
2018-06-23T04:43:48.274Z,22.6
2018-06-23T04:44:39.276Z,22.6
2018-06-23T04:45:28.931Z,22.6
2018-06-23T04:46:18.998Z,22.6
2018-06-23T04:47:08.782Z,22.6
2018-06-23T04:47:59.068Z,22.6
2018-06-23T04:48:49.761Z,22.6
2018-06-23T04:49:39.009Z,22.6
2018-06-23T04:50:29.285Z,22.6
2018-06-23T04:51:19.662Z,22.6
2018-06-23T04:52:09.125Z,22.6
2018-06-23T04:52:59.501Z,22.6
2018-06-23T04:53:49.533Z,22.6
2018-06-23T04:54:39.357Z,22.6
2018-06-23T04:55:29.950Z,22.6
2018-06-23T04:56:20.269Z,22.6
2018-06-23T04:57:09.796Z,22.6
2018-06-23T04:58:00.849Z,22.6
2018-06-23T04:58:49.676Z,22.6
2018-06-23T04:59:40.588Z,22.6
2018-06-23T05:00:31.174Z,22.6
2018-06-23T05:01:19.884Z,22.6
2018-06-23T05:02:10.701Z,22.6
2018-06-23T05:03:00.220Z,22.6
2018-06-23T05:03:50.581Z,22.6
2018-06-23T05:04:38.950Z,22.6
2018-06-23T05:05:30.181Z,22.6
2018-06-23T05:06:20.015Z,22.5
2018-06-23T05:07:10.344Z,22.6
2018-06-23T05:08:00.100Z,22.6
2018-06-23T05:08:50.301Z,22.6
2018-06-23T05:09:40.828Z,22.5
2018-06-23T05:10:29.764Z,22.5
2018-06-23T05:11:20.107Z,22.5
2018-06-23T05:12:10.972Z,22.5
2018-06-23T05:13:00.158Z,22.5
2018-06-23T05:13:51.108Z,22.5
2018-06-23T05:14:40.916Z,22.5
2018-06-23T05:15:30.190Z,22.5
2018-06-23T05:16:21.833Z,22.5
2018-06-23T05:17:11.601Z,22.4
2018-06-23T05:18:01.117Z,22.5
2018-06-23T05:18:51.145Z,22.5
2018-06-23T05:19:40.184Z,22.5
2018-06-23T05:20:31.440Z,22.5
2018-06-23T05:21:22.202Z,22.4
2018-06-23T05:22:11.252Z,22.4
2018-06-23T05:23:01.285Z,22.4
2018-06-23T05:23:51.893Z,22.4
2018-06-23T05:24:41.682Z,22.5
2018-06-23T05:25:31.157Z,22.4
2018-06-23T05:26:21.817Z,22.4
2018-06-23T05:27:11.384Z,22.4
2018-06-23T05:28:02.162Z,22.4
2018-06-23T05:28:52.036Z,22.4
2018-06-23T05:29:41.503Z,22.4
2018-06-23T05:30:32.593Z,22.4
2018-06-23T05:31:22.470Z,22.4
2018-06-23T05:32:11.644Z,22.4
2018-06-23T05:33:01.765Z,22.4
2018-06-23T05:33:51.839Z,22.4
2018-06-23T05:34:42.155Z,22.4
2018-06-23T05:35:32.248Z,22.4
2018-06-23T05:36:22.850Z,22.4
2018-06-23T05:37:13.007Z,22.4
2018-06-23T05:38:02.720Z,22.4
2018-06-23T05:38:53.024Z,22.4
2018-06-23T05:39:42.277Z,22.4
2018-06-23T05:40:32.630Z,22.4
2018-06-23T05:41:22.995Z,22.4
2018-06-23T05:42:11.908Z,22.4
2018-06-23T05:43:03.090Z,22.4
2018-06-23T05:43:52.899Z,22.4
2018-06-23T05:44:42.491Z,22.4
2018-06-23T05:45:33.289Z,22.4
2018-06-23T05:46:22.518Z,22.4
2018-06-23T05:47:13.686Z,22.3
2018-06-23T05:48:03.420Z,22.3
2018-06-23T05:48:53.839Z,22.4
2018-06-23T05:49:44.341Z,22.3
2018-06-23T05:50:32.981Z,22.3
2018-06-23T05:51:25.556Z,22.3
2018-06-23T05:52:14.045Z,22.3
2018-06-23T05:53:04.281Z,22.3
2018-06-23T05:53:54.642Z,22.3
2018-06-23T05:54:44.129Z,22.3
2018-06-23T05:55:34.269Z,22.3
2018-06-23T05:56:24.875Z,22.3
2018-06-23T05:57:14.899Z,22.3
2018-06-23T05:58:03.835Z,22.3
2018-06-23T05:58:55.022Z,22.3
2018-06-23T05:59:45.115Z,22.3
2018-06-23T06:00:34.937Z,22.3
2018-06-23T06:01:24.066Z,22.3
2018-06-23T06:02:15.035Z,22.3
2018-06-23T06:03:05.052Z,22.3
2018-06-23T06:03:55.141Z,22.3
2018-06-23T06:04:45.279Z,22.3
2018-06-23T06:05:34.957Z,22.3
2018-06-23T06:06:25.049Z,22.3
2018-06-23T06:07:15.674Z,22.3
2018-06-23T06:08:05.714Z,22.3
2018-06-23T06:08:55.769Z,22.3
2018-06-23T06:09:45.271Z,22.3
2018-06-23T06:10:35.041Z,22.3
2018-06-23T06:11:25.686Z,22.3
2018-06-23T06:12:15.772Z,22.2
2018-06-23T06:13:05.869Z,22.3
2018-06-23T06:13:55.890Z,22.2
2018-06-23T06:14:45.372Z,22.3
2018-06-23T06:15:35.753Z,22.3
2018-06-23T06:16:26.034Z,22.3
2018-06-23T06:17:16.400Z,22.2
2018-06-23T06:18:06.181Z,22.2
2018-06-23T06:18:55.948Z,22.3
2018-06-23T06:19:46.559Z,22.2
2018-06-23T06:20:36.370Z,22.2
2018-06-23T06:21:26.418Z,22.2
2018-06-23T06:22:15.929Z,22.2
2018-06-23T06:23:05.987Z,22.2
2018-06-23T06:23:58.110Z,22.2
2018-06-23T06:24:46.629Z,22.2
2018-06-23T06:25:35.912Z,22.1
2018-06-23T06:26:26.777Z,22.2
2018-06-23T06:27:17.151Z,22.2
2018-06-23T06:28:06.889Z,22.2
2018-06-23T06:28:57.148Z,22.1
2018-06-23T06:29:46.252Z,22.1
2018-06-23T06:30:37.412Z,22.1
2018-06-23T06:31:27.465Z,22.2
2018-06-23T06:32:16.691Z,22.2
2018-06-23T06:33:07.048Z,22.2
2018-06-23T06:33:57.132Z,22.1
2018-06-23T06:34:47.753Z,22.1
2018-06-23T06:35:37.849Z,22.2
2018-06-23T06:36:27.009Z,22.1
2018-06-23T06:37:17.101Z,22.1
2018-06-23T06:38:06.604Z,22.1
2018-06-23T06:38:58.117Z,22.1
2018-06-23T06:39:48.100Z,22.1
2018-06-23T06:40:38.231Z,22.1
2018-06-23T06:41:28.228Z,22.1
2018-06-23T06:42:17.437Z,22.1
2018-06-23T06:43:08.088Z,22.1
2018-06-23T06:43:57.595Z,22.1
2018-06-23T06:44:48.375Z,22.1
2018-06-23T06:45:38.030Z,22.1
2018-06-23T06:46:27.547Z,22.1
2018-06-23T06:47:17.367Z,22.1
2018-06-23T06:48:08.169Z,22.1
2018-06-23T06:48:57.937Z,22.1
2018-06-23T06:49:47.784Z,22.1
2018-06-23T06:50:38.116Z,22.1
2018-06-23T06:51:28.143Z,22.1
2018-06-23T06:52:18.834Z,22.1
2018-06-23T06:53:08.281Z,22.1
2018-06-23T06:53:59.157Z,22.1
2018-06-23T06:54:49.018Z,22.1
2018-06-23T06:55:39.266Z,22.1
2018-06-23T06:56:29.145Z,22.1
2018-06-23T06:57:20.354Z,22.1
2018-06-23T06:58:08.931Z,22.1
2018-06-23T06:58:59.504Z,22.1
2018-06-23T06:59:48.865Z,22.1
2018-06-23T07:00:39.130Z,22.1
2018-06-23T07:01:29.200Z,22.1
2018-06-23T07:02:19.251Z,22.1
2018-06-23T07:03:09.329Z,22.1
2018-06-23T07:03:59.633Z,22.1
2018-06-23T07:04:49.989Z,22.1
2018-06-23T07:05:40.058Z,22.1
2018-06-23T07:06:29.311Z,22.1
2018-06-23T07:07:20.188Z,22.1
2018-06-23T07:08:09.968Z,22
2018-06-23T07:09:00.790Z,22.1
2018-06-23T07:09:49.874Z,22.1
2018-06-23T07:10:39.889Z,22.1
2018-06-23T07:11:29.670Z,22.1
2018-06-23T07:12:20.595Z,22.1
2018-06-23T07:13:10.650Z,22.1
2018-06-23T07:14:00.397Z,22.1
2018-06-23T07:14:50.219Z,22.1
2018-06-23T07:15:41.767Z,22.1
2018-06-23T07:16:30.315Z,22.1
2018-06-23T07:17:20.965Z,22.1
2018-06-23T07:18:10.722Z,22.1
2018-06-23T07:19:01.035Z,22.1
2018-06-23T07:19:50.522Z,22.1
2018-06-23T07:20:40.294Z,22
2018-06-23T07:21:30.940Z,22.1
2018-06-23T07:22:20.764Z,22.1
2018-06-23T07:23:10.788Z,22.1
2018-06-23T07:24:03.464Z,22
2018-06-23T07:24:50.708Z,22.1
2018-06-23T07:25:40.405Z,22.1
2018-06-23T07:26:31.319Z,22.1
2018-06-23T07:27:21.167Z,22.1
2018-06-23T07:28:11.205Z,22.1
2018-06-23T07:29:01.766Z,22.1
2018-06-23T07:29:51.278Z,22.1
2018-06-23T07:30:42.274Z,22.1
2018-06-23T07:31:31.400Z,22
2018-06-23T07:32:21.778Z,22.1
2018-06-23T07:33:11.860Z,22.1
2018-06-23T07:34:01.611Z,22.1
2018-06-23T07:34:53.829Z,22.1
2018-06-23T07:35:41.458Z,22.1
2018-06-23T07:36:32.373Z,22.1
2018-06-23T07:37:22.182Z,22
2018-06-23T07:38:11.901Z,22.1
2018-06-23T07:39:02.549Z,22
2018-06-23T07:39:51.779Z,22.1
2018-06-23T07:40:43.480Z,22.1
2018-06-23T07:41:32.216Z,22.1
2018-06-23T07:42:22.594Z,22
2018-06-23T07:43:11.487Z,22
2018-06-23T07:44:02.147Z,22.1
2018-06-23T07:44:51.893Z,22.1
2018-06-23T07:45:42.265Z,22.1
2018-06-23T07:46:31.886Z,22
2018-06-23T07:47:23.336Z,22
2018-06-23T07:48:12.963Z,22.1
2018-06-23T07:49:03.018Z,22.1
2018-06-23T07:49:53.063Z,22.1
2018-06-23T07:50:43.250Z,22.1
2018-06-23T07:51:33.214Z,22.1
2018-06-23T07:52:23.258Z,22.1
2018-06-23T07:53:12.265Z,22.1
2018-06-23T07:54:02.835Z,22.1
2018-06-23T07:54:53.459Z,22.1
2018-06-23T07:55:43.568Z,22.1
2018-06-23T07:56:33.594Z,22.1
2018-06-23T07:57:23.916Z,22.1
2018-06-23T07:58:13.115Z,22.1
2018-06-23T07:59:03.454Z,22.1
2018-06-23T07:59:52.714Z,22.1
2018-06-23T08:00:43.350Z,22.1
2018-06-23T08:01:34.051Z,22.1
2018-06-23T08:02:23.976Z,22.1
2018-06-23T08:03:14.085Z,22.1
2018-06-23T08:04:04.162Z,22.1
2018-06-23T08:04:54.168Z,22.1
2018-06-23T08:05:43.705Z,22.1
2018-06-23T08:06:34.362Z,22.1
2018-06-23T08:07:24.105Z,22.1
2018-06-23T08:08:14.718Z,22.1
2018-06-23T08:09:04.282Z,22.1
2018-06-23T08:09:53.995Z,22.1
2018-06-23T08:10:44.359Z,22.1
2018-06-23T08:11:34.752Z,22.1
2018-06-23T08:12:24.522Z,22.1
2018-06-23T08:13:15.042Z,22.1
2018-06-23T08:14:04.892Z,22.1
2018-06-23T08:14:54.942Z,22.1
2018-06-23T08:15:44.680Z,22.1
2018-06-23T08:16:35.028Z,22.1
2018-06-23T08:17:25.197Z,22.1
2018-06-23T08:18:15.456Z,22.1
2018-06-23T08:19:04.938Z,22.1
2018-06-23T08:19:55.085Z,22.1
2018-06-23T08:20:44.565Z,22.1
2018-06-23T08:21:35.459Z,22.1
2018-06-23T08:22:25.474Z,22.1
2018-06-23T08:23:14.745Z,22.1
2018-06-23T08:24:05.439Z,22.1
2018-06-23T08:24:56.200Z,22.1
2018-06-23T08:25:45.547Z,22.1
2018-06-23T08:26:37.827Z,22.1
2018-06-23T08:27:26.178Z,22.1
2018-06-23T08:28:15.761Z,22.1
2018-06-23T08:29:05.963Z,22.1
2018-06-23T08:29:56.400Z,22.1
2018-06-23T08:30:46.111Z,22.1
2018-06-23T08:31:36.237Z,22.1
2018-06-23T08:32:26.261Z,22.1
2018-06-23T08:33:16.294Z,22.1
2018-06-23T08:34:06.352Z,22.1
2018-06-23T08:34:56.660Z,22.1
2018-06-23T08:35:45.932Z,22.1
2018-06-23T08:36:36.560Z,22
2018-06-23T08:37:26.433Z,22
2018-06-23T08:38:16.640Z,22.1
2018-06-23T08:39:06.763Z,22
2018-06-23T08:39:57.065Z,22
2018-06-23T08:40:46.897Z,22
2018-06-23T08:41:37.187Z,22
2018-06-23T08:42:26.719Z,22
2018-06-23T08:43:17.306Z,22.1
2018-06-23T08:44:06.845Z,22
2018-06-23T08:44:57.176Z,22
2018-06-23T08:45:47.247Z,22
2018-06-23T08:46:37.576Z,22.1
2018-06-23T08:47:27.094Z,22.1
2018-06-23T08:48:17.763Z,22.1
2018-06-23T08:49:08.528Z,22.1
2018-06-23T08:49:57.326Z,22.1
2018-06-23T08:50:47.357Z,22.1
2018-06-23T08:51:37.132Z,22.1
2018-06-23T08:52:27.462Z,22.1
2018-06-23T08:53:17.804Z,22.1
2018-06-23T08:54:06.992Z,22.1
2018-06-23T08:54:57.939Z,22.1
2018-06-23T08:55:48.234Z,22.1
2018-06-23T08:56:37.502Z,22.1
2018-06-23T08:57:28.395Z,22.1
2018-06-23T08:58:17.648Z,22.1
2018-06-23T08:59:07.738Z,22.1
2018-06-23T08:59:58.021Z,22.1
2018-06-23T09:00:48.624Z,22.1
2018-06-23T09:01:38.768Z,22.1
2018-06-23T09:02:28.774Z,22.1
2018-06-23T09:03:18.276Z,22.1
2018-06-23T09:04:08.665Z,22.1
2018-06-23T09:04:58.935Z,22.1
2018-06-23T09:05:49.071Z,22.1
2018-06-23T09:06:38.494Z,22.1
2018-06-23T09:07:28.031Z,22.1
2018-06-23T09:08:18.376Z,22.1
2018-06-23T09:09:09.339Z,22.1
2018-06-23T09:09:58.311Z,22.1
2018-06-23T09:10:47.978Z,22.1
2018-06-23T09:11:39.454Z,22.1
2018-06-23T09:12:29.634Z,22.1
2018-06-23T09:13:19.068Z,22.1
2018-06-23T09:14:09.340Z,22.1
2018-06-23T09:14:59.475Z,22.1
2018-06-23T09:15:49.754Z,22.1
2018-06-23T09:16:39.949Z,22.1
2018-06-23T09:17:29.403Z,22.1
2018-06-23T09:18:19.141Z,22.1
2018-06-23T09:19:09.191Z,22.1
2018-06-23T09:19:59.823Z,22.1
2018-06-23T09:20:50.157Z,22.1
2018-06-23T09:21:39.095Z,22.1
2018-06-23T09:22:29.780Z,22.1
2018-06-23T09:23:19.593Z,22.2
2018-06-23T09:24:10.401Z,22.1
2018-06-23T09:24:59.710Z,22.2
2018-06-23T09:25:50.812Z,22.2
2018-06-23T09:26:40.353Z,22.2
2018-06-23T09:27:30.333Z,22.2
2018-06-23T09:28:20.129Z,22.1
2018-06-23T09:29:10.465Z,22.2
2018-06-23T09:30:00.583Z,22.2
2018-06-23T09:30:50.067Z,22.2
2018-06-23T09:31:40.666Z,22.2
2018-06-23T09:32:31.034Z,22.2
2018-06-23T09:33:21.119Z,22.2
2018-06-23T09:34:10.605Z,22.2
2018-06-23T09:35:00.659Z,22.2
2018-06-23T09:35:51.300Z,22.2
2018-06-23T09:36:40.575Z,22.2
2018-06-23T09:37:31.127Z,22.2
2018-06-23T09:38:20.903Z,22.2
2018-06-23T09:39:11.239Z,22.2
2018-06-23T09:40:00.839Z,22.2
2018-06-23T09:40:50.581Z,22.2
2018-06-23T09:41:40.103Z,22.2
2018-06-23T09:42:30.398Z,22.2
2018-06-23T09:43:21.288Z,22.3
2018-06-23T09:44:11.084Z,22.2
2018-06-23T09:45:00.615Z,22.2
2018-06-23T09:45:52.646Z,22.2
2018-06-23T09:46:41.262Z,22.2
2018-06-23T09:47:31.639Z,22.2
2018-06-23T09:48:21.364Z,22.3
2018-06-23T09:49:11.308Z,22.2
2018-06-23T09:50:01.549Z,22.2
2018-06-23T09:50:51.876Z,22.3
2018-06-23T09:51:41.096Z,22.3
2018-06-23T09:52:32.018Z,22.3
2018-06-23T09:53:21.211Z,22.2
2018-06-23T09:54:12.128Z,22.3
2018-06-23T09:55:02.455Z,22.2
2018-06-23T09:55:52.557Z,22.3
2018-06-23T09:56:42.063Z,22.3
2018-06-23T09:57:31.821Z,22.3
2018-06-23T09:58:22.190Z,22.3
2018-06-23T09:59:12.517Z,22.3
2018-06-23T10:00:03.101Z,22.3
2018-06-23T10:00:52.655Z,22.3
2018-06-23T10:01:42.429Z,22.3
2018-06-23T10:02:32.767Z,22.3
2018-06-23T10:03:23.509Z,22.3
2018-06-23T10:04:12.619Z,22.3
2018-06-23T10:05:02.679Z,22.3
2018-06-23T10:05:52.830Z,22.3
2018-06-23T10:06:43.601Z,22.3
2018-06-23T10:07:33.089Z,22.3
2018-06-23T10:08:23.573Z,22.3
2018-06-23T10:09:13.293Z,22.3
2018-06-23T10:10:03.599Z,22.3
2018-06-23T10:10:53.387Z,22.3
2018-06-23T10:11:42.632Z,22.3
2018-06-23T10:12:33.576Z,22.3
2018-06-23T10:13:23.845Z,22.3
2018-06-23T10:14:13.916Z,22.3
2018-06-23T10:15:03.379Z,22.3
2018-06-23T10:15:54.082Z,22.3
2018-06-23T10:16:43.339Z,22.3
2018-06-23T10:17:34.147Z,22.3
2018-06-23T10:18:23.308Z,22.3
2018-06-23T10:19:13.742Z,22.3
2018-06-23T10:20:03.348Z,22.3
2018-06-23T10:20:54.411Z,22.3
2018-06-23T10:21:44.624Z,22.3
2018-06-23T10:22:34.815Z,22.3
2018-06-23T10:23:24.326Z,22.3
2018-06-23T10:24:14.142Z,22.3
2018-06-23T10:25:04.435Z,22.3
2018-06-23T10:25:54.483Z,22.3
2018-06-23T10:26:44.532Z,22.3
2018-06-23T10:27:35.519Z,22.3
2018-06-23T10:28:24.962Z,22.3
2018-06-23T10:29:15.025Z,22.3
2018-06-23T10:30:03.457Z,22.3
2018-06-23T10:30:54.607Z,22.3
2018-06-23T10:31:45.222Z,22.3
2018-06-23T10:32:35.071Z,22.3
2018-06-23T10:33:25.299Z,22.3
2018-06-23T10:34:15.687Z,22.3
2018-06-23T10:35:04.697Z,22.3
2018-06-23T10:35:55.549Z,22.3
2018-06-23T10:36:45.605Z,22.3
2018-06-23T10:37:35.936Z,22.3
2018-06-23T10:38:25.508Z,22.3
2018-06-23T10:39:15.827Z,22.3
2018-06-23T10:40:07.892Z,22.3
2018-06-23T10:40:55.358Z,22.3
2018-06-23T10:41:45.974Z,22.3
2018-06-23T10:42:36.315Z,22.3
2018-06-23T10:43:25.526Z,22.3
2018-06-23T10:44:15.394Z,22.3
2018-06-23T10:45:06.011Z,22.3
2018-06-23T10:45:55.592Z,22.3
2018-06-23T10:46:45.627Z,22.3
2018-06-23T10:47:35.567Z,22.3
2018-06-23T10:48:25.460Z,22.3
2018-06-23T10:49:16.080Z,22.3
2018-06-23T10:50:06.336Z,22.3
2018-06-23T10:50:56.112Z,22.3
2018-06-23T10:51:45.613Z,22.3
2018-06-23T10:52:36.537Z,22.3
2018-06-23T10:53:26.900Z,22.3
2018-06-23T10:54:16.731Z,22.3
2018-06-23T10:55:06.741Z,22.3
2018-06-23T10:55:56.260Z,22.3
2018-06-23T10:56:47.127Z,22.3
2018-06-23T10:57:36.659Z,22.3
2018-06-23T10:58:26.973Z,22.3
2018-06-23T10:59:16.853Z,22.3
2018-06-23T11:00:06.540Z,22.3
2018-06-23T11:00:57.677Z,22.3
2018-06-23T11:01:47.250Z,22.3
2018-06-23T11:02:37.236Z,22.3
2018-06-23T11:03:27.615Z,22.3
2018-06-23T11:04:17.678Z,22.3
2018-06-23T11:05:08.464Z,22.3
2018-06-23T11:05:58.151Z,22.3
2018-06-23T11:06:47.679Z,22.3